createdAt,value
2022-12-14T00:01:25.734Z,11.80
2022-12-14T00:03:53.613Z,13.43
2022-12-14T00:06:22.277Z,12.32
2022-12-14T00:08:51.423Z,12.48
2022-12-14T00:11:25.031Z,12.90
2022-12-14T00:13:57.655Z,12.18
2022-12-14T00:16:26.494Z,12.95
2022-12-14T00:18:55.866Z,11.73
2022-12-14T00:21:23.166Z,12.50
2022-12-14T00:23:51.195Z,12.80
2022-12-14T00:26:23.444Z,12.45
2022-12-14T00:28:52.363Z,13.27
2022-12-14T00:31:20.139Z,13.35
2022-12-14T00:33:47.450Z,12.93
2022-12-14T00:36:14.771Z,13.40
2022-12-14T00:38:42.214Z,13.27
2022-12-14T00:41:09.826Z,12.70
2022-12-14T00:43:37.087Z,13.40
2022-12-14T00:46:03.896Z,12.57
2022-12-14T00:48:31.545Z,13.55
2022-12-14T00:50:58.751Z,13.23
2022-12-14T00:53:25.853Z,13.50
2022-12-14T00:55:52.765Z,12.30
2022-12-14T00:58:21.825Z,13.27
2022-12-14T01:00:59.250Z,12.97
2022-12-14T01:03:26.637Z,12.80
2022-12-14T01:05:53.736Z,13.18
2022-12-14T01:08:20.934Z,12.95
2022-12-14T01:10:47.674Z,13.45
2022-12-14T01:13:14.387Z,13.88
2022-12-14T01:15:41.150Z,13.15
2022-12-14T01:18:07.953Z,12.77
2022-12-14T01:20:34.662Z,13.23
2022-12-14T01:23:01.354Z,13.15
2022-12-14T01:25:28.191Z,13.48
2022-12-14T01:27:54.895Z,13.57
2022-12-14T01:30:21.722Z,13.63
2022-12-14T01:32:48.531Z,12.80
2022-12-14T01:35:15.334Z,14.02
2022-12-14T01:37:41.993Z,14.18
2022-12-14T01:40:09.204Z,14.05
2022-12-14T01:42:36.965Z,14.38
2022-12-14T01:45:05.820Z,13.95
2022-12-14T01:47:42.963Z,13.82
2022-12-14T01:50:38.879Z,13.73
2022-12-14T01:53:11.946Z,13.57
2022-12-14T01:55:52.058Z,14.13
2022-12-14T01:58:24.528Z,13.55
2022-12-14T02:00:58.414Z,14.52
2022-12-14T02:03:34.896Z,13.98
2022-12-14T02:06:07.604Z,15.10
2022-12-14T02:08:35.186Z,14.25
2022-12-14T02:11:03.018Z,14.35
2022-12-14T02:13:33.826Z,14.52
2022-12-14T02:16:00.885Z,14.48
2022-12-14T02:18:30.423Z,14.13
2022-12-14T02:21:12.270Z,14.88
2022-12-14T02:24:14.585Z,14.20
2022-12-14T02:27:02.976Z,14.32
2022-12-14T02:29:35.554Z,14.10
2022-12-14T02:32:11.627Z,14.27
2022-12-14T02:34:47.214Z,15.00
2022-12-14T02:37:39.150Z,14.40
2022-12-14T02:40:38.261Z,14.70
2022-12-14T02:43:25.573Z,14.40
2022-12-14T02:46:16.982Z,14.10
2022-12-14T02:48:49.836Z,14.50
2022-12-14T02:51:54.717Z,15.02
2022-12-14T02:54:36.078Z,13.32
2022-12-14T02:57:19.486Z,14.55
2022-12-14T02:59:48.879Z,14.90
2022-12-14T03:02:16.972Z,15.40
2022-12-14T03:04:48.057Z,15.20
2022-12-14T03:07:36.773Z,14.77
2022-12-14T03:10:19.602Z,14.63
2022-12-14T03:12:54.142Z,16.45
2022-12-14T03:15:23.310Z,14.27
2022-12-14T03:17:55.232Z,15.47
2022-12-14T03:20:26.075Z,14.40
2022-12-14T03:23:10.924Z,14.68
2022-12-14T03:25:47.487Z,14.93
2022-12-14T03:28:32.616Z,14.60
2022-12-14T03:31:10.587Z,15.10
2022-12-14T03:33:38.793Z,15.30
2022-12-14T03:36:11.351Z,16.08
2022-12-14T03:38:42.976Z,15.35
2022-12-14T03:41:12.816Z,15.10
2022-12-14T03:44:08.187Z,14.82
2022-12-14T03:46:55.178Z,14.82
2022-12-14T03:49:27.636Z,15.20
2022-12-14T03:52:13.083Z,15.30
2022-12-14T03:54:54.766Z,16.02
2022-12-14T03:57:56.612Z,15.55
2022-12-14T04:00:24.836Z,15.38
2022-12-14T04:03:14.274Z,15.23
2022-12-14T04:05:50.060Z,16.02
2022-12-14T04:08:26.092Z,14.25
2022-12-14T04:11:15.781Z,14.88
2022-12-14T04:14:05.792Z,14.48
2022-12-14T04:19:26.718Z,14.98
2022-12-14T04:22:09.978Z,15.40
2022-12-14T04:25:02.978Z,14.80
2022-12-14T04:27:44.939Z,15.45
2022-12-14T04:30:13.600Z,16.08
2022-12-14T04:32:42.679Z,15.55
2022-12-14T04:35:15.146Z,15.20
2022-12-14T04:37:45.332Z,15.35
2022-12-14T04:40:27.789Z,16.05
2022-12-14T04:43:03.241Z,16.63
2022-12-14T04:45:47.170Z,16.13
2022-12-14T04:48:38.009Z,16.77
2022-12-14T04:51:10.906Z,15.70
2022-12-14T04:53:41.466Z,15.57
2022-12-14T04:56:24.326Z,15.80
2022-12-14T04:58:51.293Z,16.10
2022-12-14T05:01:38.330Z,15.77
2022-12-14T05:04:17.087Z,14.75
2022-12-14T05:07:18.163Z,15.95
2022-12-14T05:09:51.039Z,14.88
2022-12-14T05:12:23.521Z,15.90
2022-12-14T05:14:59.040Z,16.08
2022-12-14T05:17:28.138Z,15.88
2022-12-14T05:19:54.879Z,15.25
2022-12-14T05:22:22.611Z,15.93
2022-12-14T05:24:49.381Z,16.23
2022-12-14T05:27:16.188Z,16.02
2022-12-14T05:29:43.043Z,15.68
2022-12-14T05:32:12.662Z,15.40
2022-12-14T05:34:39.719Z,16.05
2022-12-14T05:37:06.447Z,15.50
2022-12-14T05:39:33.135Z,15.88
2022-12-14T05:41:59.881Z,15.07
2022-12-14T05:44:26.602Z,15.85
2022-12-14T05:46:53.955Z,15.68
2022-12-14T05:49:20.646Z,16.38
2022-12-14T05:51:49.227Z,16.42
2022-12-14T05:54:15.939Z,15.65
2022-12-14T05:56:42.725Z,15.63
2022-12-14T05:59:12.615Z,16.05
2022-12-14T06:01:39.357Z,16.15
2022-12-14T06:04:06.189Z,16.73
2022-12-14T06:06:33.854Z,16.55
2022-12-14T06:09:00.583Z,16.25
2022-12-14T06:11:27.425Z,16.05
2022-12-14T06:13:54.192Z,17.08
2022-12-14T06:16:23.851Z,17.02
2022-12-14T06:18:56.042Z,16.90
2022-12-14T06:21:28.462Z,17.05
2022-12-14T06:23:55.958Z,16.48
2022-12-14T06:26:23.617Z,15.85
2022-12-14T06:28:50.700Z,16.45
2022-12-14T06:31:19.913Z,16.48
2022-12-14T06:33:47.544Z,16.80
2022-12-14T06:36:18.952Z,16.85
2022-12-14T06:38:46.304Z,16.52
2022-12-14T06:41:13.056Z,16.30
2022-12-14T06:43:39.903Z,16.85
2022-12-14T06:46:15.137Z,17.35
2022-12-14T06:48:42.684Z,17.55
2022-12-14T06:51:09.923Z,16.77
2022-12-14T06:53:36.811Z,17.27
2022-12-14T06:56:10.443Z,17.30
2022-12-14T06:58:37.701Z,18.67
2022-12-14T07:01:20.733Z,18.38
2022-12-14T07:03:53.496Z,17.17
2022-12-14T07:06:21.703Z,17.88
2022-12-14T07:08:49.102Z,18.48
2022-12-14T07:11:17.320Z,17.80
2022-12-14T07:13:44.348Z,17.85
2022-12-14T07:16:17.055Z,17.70
2022-12-14T07:18:44.068Z,19.00
2022-12-14T07:21:13.402Z,18.45
2022-12-14T07:23:42.744Z,18.75
2022-12-14T07:26:15.328Z,18.63
2022-12-14T07:28:42.748Z,19.00
2022-12-14T07:31:28.770Z,18.08
2022-12-14T07:33:57.744Z,19.17
2022-12-14T07:36:26.872Z,18.15
2022-12-14T07:38:55.774Z,18.70
2022-12-14T07:41:29.385Z,18.88
2022-12-14T07:43:56.960Z,18.58
2022-12-14T07:46:25.973Z,18.60
2022-12-14T07:48:54.926Z,18.83
2022-12-14T07:51:25.310Z,18.95
2022-12-14T07:53:52.610Z,18.05
2022-12-14T07:56:22.665Z,18.17
2022-12-14T08:01:18.547Z,17.65
2022-12-14T08:03:50.731Z,18.67
2022-12-14T08:06:19.212Z,19.10
2022-12-14T08:08:46.423Z,19.17
2022-12-14T08:11:14.042Z,18.65
2022-12-14T08:13:43.072Z,19.42
2022-12-14T08:16:13.702Z,19.90
2022-12-14T08:18:41.231Z,19.83
2022-12-14T08:21:09.668Z,18.13
2022-12-14T08:23:37.556Z,18.88
2022-12-14T08:26:06.303Z,19.25
2022-12-14T08:28:35.804Z,17.92
2022-12-14T08:31:14.173Z,19.83
2022-12-14T08:33:41.983Z,19.00
2022-12-14T08:36:18.009Z,18.02
2022-12-14T08:38:45.298Z,18.20
2022-12-14T08:41:13.897Z,18.10
2022-12-14T08:43:41.196Z,17.65
2022-12-14T08:46:09.265Z,18.38
2022-12-14T08:48:36.849Z,19.52
2022-12-14T08:51:09.681Z,17.92
2022-12-14T08:53:38.046Z,18.70
2022-12-14T08:56:10.600Z,19.95
2022-12-14T08:58:39.111Z,19.52
2022-12-14T09:01:07.469Z,18.77
2022-12-14T09:03:34.728Z,19.60
2022-12-14T09:06:03.311Z,18.90
2022-12-14T09:08:31.036Z,19.98
2022-12-14T09:10:57.796Z,19.80
2022-12-14T09:13:24.519Z,19.00
2022-12-14T09:16:02.330Z,19.67
2022-12-14T09:18:30.155Z,19.30
2022-12-14T09:20:57.600Z,18.83
2022-12-14T09:23:25.858Z,20.05
2022-12-14T09:26:22.648Z,18.88
2022-12-14T09:28:54.279Z,18.67
2022-12-14T09:31:23.819Z,19.40
2022-12-14T09:33:51.210Z,19.08
2022-12-14T09:36:23.361Z,18.98
2022-12-14T09:38:52.518Z,18.60
2022-12-14T09:41:37.936Z,19.15
2022-12-14T09:44:25.491Z,18.02
2022-12-14T09:46:54.922Z,17.55
2022-12-14T09:49:40.032Z,18.23
2022-12-14T09:52:15.779Z,19.05
2022-12-14T09:54:44.418Z,18.08
2022-12-14T09:57:18.556Z,19.27
2022-12-14T09:59:45.316Z,19.35
2022-12-14T10:02:50.483Z,20.08
2022-12-14T10:05:21.211Z,19.77
2022-12-14T10:08:09.174Z,19.20
2022-12-14T10:10:44.577Z,19.35
2022-12-14T10:13:11.265Z,20.23
2022-12-14T10:15:37.991Z,19.98
2022-12-14T10:18:27.481Z,19.05
2022-12-14T10:21:11.706Z,20.20
2022-12-14T10:24:06.836Z,19.30
2022-12-14T10:26:44.088Z,18.23
2022-12-14T10:29:17.788Z,18.92
2022-12-14T10:31:53.225Z,19.67
2022-12-14T10:34:23.524Z,18.88
2022-12-14T10:37:30.700Z,19.02
2022-12-14T10:40:16.403Z,20.80
2022-12-14T10:43:08.373Z,20.17
2022-12-14T10:45:40.795Z,19.45
2022-12-14T10:48:26.527Z,20.13
2022-12-14T10:51:00.017Z,19.83
2022-12-14T10:53:41.147Z,19.73
2022-12-14T10:56:16.251Z,19.48
2022-12-14T10:58:42.987Z,19.88
2022-12-14T11:01:14.811Z,19.33
2022-12-14T11:03:43.816Z,19.58
2022-12-14T11:06:19.040Z,19.67
2022-12-14T11:08:48.554Z,19.70
2022-12-14T11:11:24.741Z,19.73
2022-12-14T11:14:09.388Z,19.88
2022-12-14T11:16:39.832Z,20.00
2022-12-14T11:19:16.778Z,19.02
2022-12-14T11:21:44.126Z,19.70
2022-12-14T11:24:28.210Z,20.27
2022-12-14T11:27:01.436Z,20.13
2022-12-14T11:29:34.610Z,20.60
2022-12-14T11:32:01.779Z,21.17
2022-12-14T11:34:39.933Z,20.92
2022-12-14T11:37:14.363Z,20.27
2022-12-14T11:39:44.987Z,20.73
2022-12-14T11:42:19.047Z,20.20
2022-12-14T11:44:47.600Z,20.27
2022-12-14T11:47:21.587Z,20.42
2022-12-14T11:49:57.730Z,20.45
2022-12-14T11:52:26.217Z,20.58
2022-12-14T11:54:52.902Z,19.70
2022-12-14T11:57:26.877Z,19.85
2022-12-14T11:59:57.604Z,18.70
2022-12-14T12:02:30.056Z,18.63
2022-12-14T12:04:58.997Z,19.10
2022-12-14T12:07:33.892Z,19.23
2022-12-14T12:10:07.936Z,19.98
2022-12-14T12:12:35.471Z,19.80
2022-12-14T12:15:03.086Z,19.58
2022-12-14T12:17:42.324Z,20.13
2022-12-14T12:20:27.484Z,21.27
2022-12-14T12:22:59.014Z,20.55
2022-12-14T12:25:36.995Z,19.95
2022-12-14T12:28:23.227Z,20.92
2022-12-14T12:30:53.155Z,20.58
2022-12-14T12:33:31.504Z,20.30
2022-12-14T12:36:05.273Z,20.17
2022-12-14T12:38:55.686Z,21.25
2022-12-14T12:41:44.607Z,20.90
2022-12-14T12:44:44.175Z,23.00
2022-12-14T12:47:41.548Z,22.00
2022-12-14T12:50:18.904Z,22.58
2022-12-14T12:53:12.510Z,22.52
2022-12-14T12:55:47.216Z,21.52
2022-12-14T12:58:24.952Z,22.40
2022-12-14T13:00:55.659Z,23.27
2022-12-14T13:03:37.581Z,22.20
2022-12-14T13:06:20.343Z,21.70
2022-12-14T13:08:51.657Z,23.30
2022-12-14T13:11:26.548Z,23.10
2022-12-14T13:13:58.099Z,23.55
2022-12-14T13:16:37.608Z,22.98
2022-12-14T13:19:48.936Z,23.52
2022-12-14T13:22:06.589Z,22.85
2022-12-14T13:24:34.000Z,24.10
2022-12-14T13:27:40.782Z,23.55
2022-12-14T13:30:50.543Z,24.25
2022-12-14T13:34:05.376Z,23.23
2022-12-14T13:36:40.761Z,24.55
2022-12-14T13:39:10.206Z,24.63
2022-12-14T13:41:49.068Z,24.38
2022-12-14T13:44:55.161Z,25.40
2022-12-14T13:47:30.439Z,23.63
2022-12-14T13:52:49.734Z,23.85
2022-12-14T13:55:32.001Z,23.70
2022-12-14T13:58:14.076Z,23.98
2022-12-14T14:00:58.889Z,23.70
2022-12-14T14:03:35.165Z,24.73
2022-12-14T14:06:08.394Z,25.25
2022-12-14T14:08:41.773Z,24.88
2022-12-14T14:11:37.001Z,24.05
2022-12-14T14:14:04.419Z,25.13
2022-12-14T14:16:39.023Z,24.95
2022-12-14T14:19:17.858Z,26.50
2022-12-14T14:22:22.303Z,26.17
2022-12-14T14:25:37.262Z,25.70
2022-12-14T14:28:04.447Z,24.35
2022-12-14T14:30:57.040Z,24.65
2022-12-14T14:33:45.535Z,25.45
2022-12-14T14:36:30.919Z,25.45
2022-12-14T14:39:54.226Z,27.45
2022-12-14T14:42:22.323Z,26.52
2022-12-14T14:45:05.655Z,26.50
2022-12-14T14:47:38.249Z,27.25
2022-12-14T14:50:16.122Z,27.13
2022-12-14T14:52:42.930Z,25.65
2022-12-14T14:58:25.673Z,26.10
2022-12-14T15:01:01.716Z,28.45
2022-12-14T15:03:45.003Z,29.63
2022-12-14T15:06:21.110Z,27.70
2022-12-14T15:09:00.377Z,28.90
2022-12-14T15:11:31.245Z,28.57
2022-12-14T15:14:02.611Z,27.88
2022-12-14T15:16:41.529Z,28.35
2022-12-14T15:19:24.798Z,28.92
2022-12-14T15:22:00.020Z,28.50
2022-12-14T15:24:27.331Z,29.50
2022-12-14T15:26:54.469Z,29.00
2022-12-14T15:29:27.782Z,29.48
2022-12-14T15:31:59.791Z,29.73
2022-12-14T15:34:27.757Z,30.20
2022-12-14T15:36:56.020Z,30.00
2022-12-14T15:39:40.015Z,27.98
2022-12-14T15:42:12.114Z,28.15
2022-12-14T15:44:43.743Z,29.30
2022-12-14T15:47:22.730Z,28.02
2022-12-14T15:49:53.358Z,29.90
2022-12-14T15:52:29.418Z,28.98
2022-12-14T15:54:56.871Z,28.95
2022-12-14T15:57:24.387Z,30.00
2022-12-14T15:59:54.980Z,31.00
2022-12-14T16:02:30.635Z,30.17
2022-12-14T16:05:01.141Z,29.52
2022-12-14T16:07:41.804Z,29.23
2022-12-14T16:10:26.211Z,29.77
2022-12-14T16:13:09.681Z,28.38
2022-12-14T16:15:36.396Z,28.10
2022-12-14T16:18:03.885Z,28.98
2022-12-14T16:20:38.265Z,29.42
2022-12-14T16:23:15.741Z,29.33
2022-12-14T16:25:58.635Z,28.95
2022-12-14T16:28:32.681Z,28.73
2022-12-14T16:31:01.596Z,31.65
2022-12-14T16:33:29.988Z,29.33
2022-12-14T16:36:03.896Z,30.67
2022-12-14T16:38:33.088Z,31.73
2022-12-14T16:41:02.402Z,30.08
2022-12-14T16:43:32.715Z,30.00
2022-12-14T16:46:05.815Z,29.02
2022-12-14T16:48:35.827Z,29.83
2022-12-14T16:51:38.279Z,30.10
2022-12-14T16:54:25.527Z,28.25
2022-12-14T16:56:57.227Z,27.98
2022-12-14T16:59:43.838Z,29.40
2022-12-14T17:02:35.169Z,28.70
2022-12-14T17:05:23.548Z,28.58
2022-12-14T17:07:50.298Z,28.40
2022-12-14T17:10:25.167Z,27.83
2022-12-14T17:12:56.782Z,27.55
2022-12-14T17:15:24.898Z,28.02
2022-12-14T17:17:54.351Z,27.90
2022-12-14T17:20:29.985Z,26.02
2022-12-14T17:22:59.844Z,26.27
2022-12-14T17:25:27.803Z,27.05
2022-12-14T17:27:54.602Z,25.80
2022-12-14T17:30:23.682Z,26.77
2022-12-14T17:32:52.620Z,27.35
2022-12-14T17:35:21.188Z,26.85
2022-12-14T17:37:49.351Z,27.17
2022-12-14T17:40:16.512Z,26.17
2022-12-14T17:42:49.369Z,28.23
2022-12-14T17:45:27.544Z,27.95
2022-12-14T17:47:54.662Z,27.60
2022-12-14T17:50:21.974Z,27.35
2022-12-14T17:52:50.354Z,26.75
2022-12-14T17:55:20.423Z,24.88
2022-12-14T17:57:47.972Z,26.48
2022-12-14T18:00:42.751Z,25.48
2022-12-14T18:03:11.306Z,24.33
2022-12-14T18:05:43.459Z,26.00
2022-12-14T18:08:13.430Z,25.05
2022-12-14T18:10:41.569Z,24.42
2022-12-14T18:13:09.865Z,24.63
2022-12-14T18:15:40.943Z,25.77
2022-12-14T18:18:08.248Z,25.70
2022-12-14T18:20:35.830Z,23.27
2022-12-14T18:23:02.571Z,24.77
2022-12-14T18:25:35.865Z,24.75
2022-12-14T18:28:05.722Z,24.77
2022-12-14T18:30:40.570Z,25.60
2022-12-14T18:33:15.997Z,26.95
2022-12-14T18:35:44.062Z,24.13
2022-12-14T18:38:11.314Z,24.77
2022-12-14T18:40:39.371Z,24.48
2022-12-14T18:43:06.311Z,25.75
2022-12-14T18:45:35.035Z,22.98
2022-12-14T18:48:02.003Z,24.50
2022-12-14T18:50:30.053Z,26.15
2022-12-14T18:52:57.283Z,26.73
2022-12-14T18:55:30.913Z,26.27
2022-12-14T18:58:00.675Z,26.85
2022-12-14T19:00:30.707Z,27.17
2022-12-14T19:02:58.862Z,26.48
2022-12-14T19:05:26.589Z,27.08
2022-12-14T19:07:53.781Z,25.88
2022-12-14T19:10:23.282Z,27.30
2022-12-14T19:12:50.695Z,26.23
2022-12-14T19:15:20.992Z,23.80
2022-12-14T19:17:48.135Z,23.27
2022-12-14T19:20:17.223Z,23.33
2022-12-14T19:22:45.092Z,23.00
2022-12-14T19:25:12.859Z,22.73
2022-12-14T19:28:15.450Z,22.48
2022-12-14T19:30:27.192Z,20.80
2022-12-14T19:32:55.980Z,20.13
2022-12-14T19:35:24.094Z,19.88
2022-12-14T19:37:51.675Z,18.90
2022-12-14T19:40:19.532Z,19.90
2022-12-14T19:42:46.915Z,18.95
2022-12-14T19:45:14.595Z,18.63
2022-12-14T19:47:42.503Z,17.92
2022-12-14T19:50:11.273Z,19.15
2022-12-14T19:52:37.967Z,19.75
2022-12-14T19:55:04.988Z,18.40
2022-12-14T19:57:31.810Z,18.90
2022-12-14T19:59:59.971Z,19.63
2022-12-14T20:02:27.110Z,17.35
2022-12-14T20:04:54.070Z,18.88
2022-12-14T20:07:20.807Z,17.38
2022-12-14T20:09:47.543Z,17.63
2022-12-14T20:12:14.416Z,18.27
2022-12-14T20:14:42.572Z,17.95
2022-12-14T20:17:10.754Z,17.70
2022-12-14T20:19:39.333Z,17.40
2022-12-14T20:22:08.562Z,17.40
2022-12-14T20:24:35.862Z,17.00
2022-12-14T20:27:02.603Z,16.23
2022-12-14T20:29:29.406Z,15.85
2022-12-14T20:31:56.398Z,14.77
2022-12-14T20:34:23.296Z,15.25
2022-12-14T20:36:50.091Z,15.57
2022-12-14T20:39:16.775Z,14.25
2022-12-14T20:41:43.602Z,13.70
2022-12-14T20:44:15.199Z,13.77
2022-12-14T20:46:44.923Z,13.60
2022-12-14T20:49:14.570Z,14.18
2022-12-14T20:51:42.709Z,14.00
2022-12-14T20:54:12.919Z,13.35
2022-12-14T20:59:07.960Z,12.25
2022-12-14T21:01:36.716Z,12.70
2022-12-14T21:04:04.274Z,12.38
2022-12-14T21:06:32.983Z,12.82
2022-12-14T21:09:09.431Z,12.95
2022-12-14T21:12:00.662Z,13.82
2022-12-14T21:14:31.038Z,12.85
2022-12-14T21:16:57.934Z,12.75
2022-12-14T21:19:24.971Z,12.65
2022-12-14T21:21:54.003Z,12.95
2022-12-14T21:24:44.822Z,13.48
2022-12-14T21:27:09.983Z,13.25
2022-12-14T21:29:36.714Z,13.07
2022-12-14T21:32:04.362Z,12.93
2022-12-14T21:34:31.920Z,14.57
2022-12-14T21:36:59.151Z,13.55
2022-12-14T21:39:25.929Z,14.60
2022-12-14T21:42:12.700Z,15.25
2022-12-14T21:44:41.410Z,14.45
2022-12-14T21:47:11.672Z,14.82
2022-12-14T21:49:39.945Z,13.68
2022-12-14T21:52:07.654Z,14.00
2022-12-14T21:54:34.714Z,15.02
2022-12-14T21:57:19.922Z,14.60
2022-12-14T21:59:46.637Z,13.43
2022-12-14T22:02:19.942Z,15.05
2022-12-14T22:04:47.679Z,13.98
2022-12-14T22:07:16.076Z,14.07
2022-12-14T22:09:43.335Z,14.25
2022-12-14T22:12:17.723Z,14.43
2022-12-14T22:14:44.670Z,14.23
2022-12-14T22:17:13.115Z,14.68
2022-12-14T22:19:40.042Z,14.43
2022-12-14T22:22:07.212Z,13.98
2022-12-14T22:24:33.946Z,13.77
2022-12-14T22:27:00.718Z,14.27
2022-12-14T22:29:27.509Z,13.82
2022-12-14T22:31:54.266Z,14.27
2022-12-14T22:34:23.187Z,15.00
2022-12-14T22:36:51.331Z,14.13
2022-12-14T22:39:18.978Z,14.02
2022-12-14T22:41:46.896Z,14.15
2022-12-14T22:44:13.622Z,14.73
2022-12-14T22:46:40.936Z,15.30
2022-12-14T22:49:08.680Z,14.30
2022-12-14T22:51:35.650Z,13.43
2022-12-14T22:54:03.084Z,13.68
2022-12-14T22:56:37.206Z,13.90
2022-12-14T22:59:09.079Z,15.25
2022-12-14T23:01:37.499Z,14.13
2022-12-14T23:04:06.200Z,14.00
2022-12-14T23:06:33.805Z,14.45
2022-12-14T23:09:19.068Z,14.90
2022-12-14T23:12:06.607Z,15.15
2022-12-14T23:14:56.250Z,15.35
2022-12-14T23:17:41.728Z,15.52
2022-12-14T23:20:27.654Z,14.65
2022-12-14T23:23:13.124Z,14.90
2022-12-14T23:25:58.586Z,13.60
2022-12-14T23:28:43.917Z,13.90
2022-12-14T23:31:35.189Z,14.70
2022-12-14T23:34:20.668Z,15.57
2022-12-14T23:37:06.219Z,15.10
2022-12-14T23:39:52.719Z,15.73
2022-12-14T23:42:38.054Z,15.70
2022-12-14T23:45:24.964Z,15.70
2022-12-14T23:48:10.439Z,16.08
2022-12-14T23:50:55.826Z,17.02
2022-12-14T23:53:41.273Z,16.25
2022-12-14T23:56:26.788Z,16.85
2022-12-14T23:59:14.154Z,17.30
